sensor_id;sensor_type;location;lat;lon;timestamp;temperature;humidity
19552;DHT22;9921;47.186;9.778;2023-07-02T00:01:51;20.70;99.90
19552;DHT22;9921;47.186;9.778;2023-07-02T00:04:18;20.80;99.90
19552;DHT22;9921;47.186;9.778;2023-07-02T00:06:45;20.80;99.90
19552;DHT22;9921;47.186;9.778;2023-07-02T00:09:12;20.80;99.90
19552;DHT22;9921;47.186;9.778;2023-07-02T00:11:41;20.70;99.90
19552;DHT22;9921;47.186;9.778;2023-07-02T00:14:08;20.70;99.90
19552;DHT22;9921;47.186;9.778;2023-07-02T00:16:38;20.70;99.90
19552;DHT22;9921;47.186;9.778;2023-07-02T00:19:05;20.60;99.90
19552;DHT22;9921;47.186;9.778;2023-07-02T00:21:32;20.60;99.90
19552;DHT22;9921;47.186;9.778;2023-07-02T00:24:00;20.60;99.90
19552;DHT22;9921;47.186;9.778;2023-07-02T00:26:27;20.70;99.90
19552;DHT22;9921;47.186;9.778;2023-07-02T00:28:55;20.70;99.90
19552;DHT22;9921;47.186;9.778;2023-07-02T00:31:23;20.70;99.90
19552;DHT22;9921;47.186;9.778;2023-07-02T00:33:51;20.60;99.90
19552;DHT22;9921;47.186;9.778;2023-07-02T00:36:18;20.60;99.90
19552;DHT22;9921;47.186;9.778;2023-07-02T00:38:46;20.60;99.90
19552;DHT22;9921;47.186;9.778;2023-07-02T00:41:14;20.60;99.90
19552;DHT22;9921;47.186;9.778;2023-07-02T00:43:41;20.50;99.90
19552;DHT22;9921;47.186;9.778;2023-07-02T00:46:13;20.50;99.90
19552;DHT22;9921;47.186;9.778;2023-07-02T00:48:44;20.50;99.90
19552;DHT22;9921;47.186;9.778;2023-07-02T00:51:15;20.40;99.90
19552;DHT22;9921;47.186;9.778;2023-07-02T00:53:44;20.40;99.90
19552;DHT22;9921;47.186;9.778;2023-07-02T00:56:11;20.50;99.90
19552;DHT22;9921;47.186;9.778;2023-07-02T00:58:40;20.50;99.90
19552;DHT22;9921;47.186;9.778;2023-07-02T01:01:12;20.50;99.90
19552;DHT22;9921;47.186;9.778;2023-07-02T01:03:39;20.50;99.90
19552;DHT22;9921;47.186;9.778;2023-07-02T01:06:19;20.50;99.90
19552;DHT22;9921;47.186;9.778;2023-07-02T01:08:51;20.40;99.90
19552;DHT22;9921;47.186;9.778;2023-07-02T01:11:18;20.30;99.90
19552;DHT22;9921;47.186;9.778;2023-07-02T01:13:46;20.30;99.90
19552;DHT22;9921;47.186;9.778;2023-07-02T01:16:14;20.40;99.90
19552;DHT22;9921;47.186;9.778;2023-07-02T01:18:42;20.30;99.90
19552;DHT22;9921;47.186;9.778;2023-07-02T01:21:10;20.30;99.90
19552;DHT22;9921;47.186;9.778;2023-07-02T01:23:37;20.30;99.90
19552;DHT22;9921;47.186;9.778;2023-07-02T01:26:04;20.30;99.90
19552;DHT22;9921;47.186;9.778;2023-07-02T01:28:35;20.40;99.90
19552;DHT22;9921;47.186;9.778;2023-07-02T01:31:03;20.40;99.90
19552;DHT22;9921;47.186;9.778;2023-07-02T01:33:30;20.40;99.90
19552;DHT22;9921;47.186;9.778;2023-07-02T01:35:57;20.30;99.90
19552;DHT22;9921;47.186;9.778;2023-07-02T01:38:25;20.30;99.90
19552;DHT22;9921;47.186;9.778;2023-07-02T01:40:52;20.40;99.90
19552;DHT22;9921;47.186;9.778;2023-07-02T01:43:19;20.40;99.90
19552;DHT22;9921;47.186;9.778;2023-07-02T01:45:46;20.50;99.90
19552;DHT22;9921;47.186;9.778;2023-07-02T01:48:13;20.40;99.90
19552;DHT22;9921;47.186;9.778;2023-07-02T01:50:40;20.50;99.90
19552;DHT22;9921;47.186;9.778;2023-07-02T01:53:06;20.40;99.90
19552;DHT22;9921;47.186;9.778;2023-07-02T01:55:35;20.40;99.90
19552;DHT22;9921;47.186;9.778;2023-07-02T01:58:01;20.40;99.90
19552;DHT22;9921;47.186;9.778;2023-07-02T02:00:28;20.50;99.90
19552;DHT22;9921;47.186;9.778;2023-07-02T02:02:55;20.50;99.90
19552;DHT22;9921;47.186;9.778;2023-07-02T02:05:22;20.50;99.90
19552;DHT22;9921;47.186;9.778;2023-07-02T02:07:49;20.40;99.90
19552;DHT22;9921;47.186;9.778;2023-07-02T02:10:16;20.40;99.90
19552;DHT22;9921;47.186;9.778;2023-07-02T02:12:44;20.30;99.90
19552;DHT22;9921;47.186;9.778;2023-07-02T02:15:11;20.20;99.90
19552;DHT22;9921;47.186;9.778;2023-07-02T02:17:39;20.20;99.90
19552;DHT22;9921;47.186;9.778;2023-07-02T02:20:07;20.20;99.90
19552;DHT22;9921;47.186;9.778;2023-07-02T02:22:35;20.20;99.90
19552;DHT22;9921;47.186;9.778;2023-07-02T02:25:02;20.10;99.90
19552;DHT22;9921;47.186;9.778;2023-07-02T02:27:30;20.10;99.90
19552;DHT22;9921;47.186;9.778;2023-07-02T02:29:58;20.10;99.90
19552;DHT22;9921;47.186;9.778;2023-07-02T02:32:25;20.00;99.90
19552;DHT22;9921;47.186;9.778;2023-07-02T02:34:52;20.00;99.90
19552;DHT22;9921;47.186;9.778;2023-07-02T02:37:20;20.00;99.90
19552;DHT22;9921;47.186;9.778;2023-07-02T02:39:47;19.90;99.90
19552;DHT22;9921;47.186;9.778;2023-07-02T02:42:13;19.90;99.90
19552;DHT22;9921;47.186;9.778;2023-07-02T02:44:40;19.80;99.90
19552;DHT22;9921;47.186;9.778;2023-07-02T02:47:08;19.80;99.90
19552;DHT22;9921;47.186;9.778;2023-07-02T02:49:37;19.60;99.90
19552;DHT22;9921;47.186;9.778;2023-07-02T02:52:04;19.60;99.90
19552;DHT22;9921;47.186;9.778;2023-07-02T02:54:31;19.60;99.90
19552;DHT22;9921;47.186;9.778;2023-07-02T02:56:58;19.60;99.90
19552;DHT22;9921;47.186;9.778;2023-07-02T02:59:25;19.60;99.90
19552;DHT22;9921;47.186;9.778;2023-07-02T03:01:52;19.60;99.90
19552;DHT22;9921;47.186;9.778;2023-07-02T03:04:20;19.70;99.90
19552;DHT22;9921;47.186;9.778;2023-07-02T03:06:49;19.70;99.90
19552;DHT22;9921;47.186;9.778;2023-07-02T03:09:17;19.70;99.90
19552;DHT22;9921;47.186;9.778;2023-07-02T03:11:44;19.80;99.90
19552;DHT22;9921;47.186;9.778;2023-07-02T03:14:10;19.80;99.90
19552;DHT22;9921;47.186;9.778;2023-07-02T03:16:37;19.90;99.90
19552;DHT22;9921;47.186;9.778;2023-07-02T03:19:04;19.90;99.90
19552;DHT22;9921;47.186;9.778;2023-07-02T03:21:32;19.90;99.90
19552;DHT22;9921;47.186;9.778;2023-07-02T03:23:59;19.90;99.90
19552;DHT22;9921;47.186;9.778;2023-07-02T03:26:26;19.90;99.90
19552;DHT22;9921;47.186;9.778;2023-07-02T03:28:53;19.90;99.90
19552;DHT22;9921;47.186;9.778;2023-07-02T03:31:20;19.90;99.90
19552;DHT22;9921;47.186;9.778;2023-07-02T03:33:46;20.00;99.90
19552;DHT22;9921;47.186;9.778;2023-07-02T03:36:13;20.00;99.90
19552;DHT22;9921;47.186;9.778;2023-07-02T03:38:42;19.90;99.90
19552;DHT22;9921;47.186;9.778;2023-07-02T03:41:08;19.90;99.90
19552;DHT22;9921;47.186;9.778;2023-07-02T03:43:35;19.90;99.90
19552;DHT22;9921;47.186;9.778;2023-07-02T03:46:02;19.90;99.90
19552;DHT22;9921;47.186;9.778;2023-07-02T03:48:29;19.90;99.90
19552;DHT22;9921;47.186;9.778;2023-07-02T03:50:56;19.80;99.90
19552;DHT22;9921;47.186;9.778;2023-07-02T03:53:23;19.80;99.90
19552;DHT22;9921;47.186;9.778;2023-07-02T03:55:51;19.70;99.90
19552;DHT22;9921;47.186;9.778;2023-07-02T03:58:18;19.70;99.90
19552;DHT22;9921;47.186;9.778;2023-07-02T04:00:45;19.70;99.90
19552;DHT22;9921;47.186;9.778;2023-07-02T04:03:15;19.60;99.90
19552;DHT22;9921;47.186;9.778;2023-07-02T04:05:42;19.60;99.90
19552;DHT22;9921;47.186;9.778;2023-07-02T04:08:09;19.60;99.90
19552;DHT22;9921;47.186;9.778;2023-07-02T04:10:36;19.60;99.90
19552;DHT22;9921;47.186;9.778;2023-07-02T04:13:04;19.50;99.90
19552;DHT22;9921;47.186;9.778;2023-07-02T04:15:31;19.50;99.90
19552;DHT22;9921;47.186;9.778;2023-07-02T04:17:58;19.50;99.90
19552;DHT22;9921;47.186;9.778;2023-07-02T04:20:25;19.50;99.90
19552;DHT22;9921;47.186;9.778;2023-07-02T04:22:54;19.60;99.90
19552;DHT22;9921;47.186;9.778;2023-07-02T04:25:21;19.60;99.90
19552;DHT22;9921;47.186;9.778;2023-07-02T04:27:48;19.70;99.90
19552;DHT22;9921;47.186;9.778;2023-07-02T04:30:16;19.70;99.90
19552;DHT22;9921;47.186;9.778;2023-07-02T04:32:43;19.80;99.90
19552;DHT22;9921;47.186;9.778;2023-07-02T04:35:10;19.80;99.90
19552;DHT22;9921;47.186;9.778;2023-07-02T04:37:37;19.90;99.90
19552;DHT22;9921;47.186;9.778;2023-07-02T04:40:05;19.90;99.90
19552;DHT22;9921;47.186;9.778;2023-07-02T04:42:35;19.90;99.90
19552;DHT22;9921;47.186;9.778;2023-07-02T04:45:03;19.90;99.90
19552;DHT22;9921;47.186;9.778;2023-07-02T04:47:32;19.90;99.90
19552;DHT22;9921;47.186;9.778;2023-07-02T04:49:59;19.90;99.90
19552;DHT22;9921;47.186;9.778;2023-07-02T04:52:26;20.00;99.90
19552;DHT22;9921;47.186;9.778;2023-07-02T04:54:53;20.00;99.90
19552;DHT22;9921;47.186;9.778;2023-07-02T04:57:21;20.00;99.90
19552;DHT22;9921;47.186;9.778;2023-07-02T04:59:48;20.00;99.90
19552;DHT22;9921;47.186;9.778;2023-07-02T05:02:15;20.00;99.90
19552;DHT22;9921;47.186;9.778;2023-07-02T05:04:43;20.00;99.90
19552;DHT22;9921;47.186;9.778;2023-07-02T05:07:10;19.90;99.90
19552;DHT22;9921;47.186;9.778;2023-07-02T05:09:37;19.90;99.90
19552;DHT22;9921;47.186;9.778;2023-07-02T05:12:04;19.90;99.90
19552;DHT22;9921;47.186;9.778;2023-07-02T05:14:31;20.00;99.90
19552;DHT22;9921;47.186;9.778;2023-07-02T05:16:58;20.00;99.90
19552;DHT22;9921;47.186;9.778;2023-07-02T05:19:25;20.10;99.90
19552;DHT22;9921;47.186;9.778;2023-07-02T05:21:53;20.10;99.90
19552;DHT22;9921;47.186;9.778;2023-07-02T05:24:20;20.10;99.90
19552;DHT22;9921;47.186;9.778;2023-07-02T05:26:47;20.10;99.90
19552;DHT22;9921;47.186;9.778;2023-07-02T05:29:14;20.10;99.90
19552;DHT22;9921;47.186;9.778;2023-07-02T05:31:41;20.10;99.90
19552;DHT22;9921;47.186;9.778;2023-07-02T05:34:07;20.10;99.90
19552;DHT22;9921;47.186;9.778;2023-07-02T05:36:34;20.10;99.90
19552;DHT22;9921;47.186;9.778;2023-07-02T05:39:03;20.10;99.90
19552;DHT22;9921;47.186;9.778;2023-07-02T05:41:29;20.10;99.90
19552;DHT22;9921;47.186;9.778;2023-07-02T05:43:56;20.10;99.90
19552;DHT22;9921;47.186;9.778;2023-07-02T05:46:23;20.10;99.90
19552;DHT22;9921;47.186;9.778;2023-07-02T05:48:50;20.10;99.90
19552;DHT22;9921;47.186;9.778;2023-07-02T05:51:20;20.10;99.90
19552;DHT22;9921;47.186;9.778;2023-07-02T05:53:47;20.10;99.90
19552;DHT22;9921;47.186;9.778;2023-07-02T05:56:16;20.10;99.90
19552;DHT22;9921;47.186;9.778;2023-07-02T05:58:43;20.10;99.90
19552;DHT22;9921;47.186;9.778;2023-07-02T06:01:10;20.10;99.90
19552;DHT22;9921;47.186;9.778;2023-07-02T06:03:37;20.10;99.90
19552;DHT22;9921;47.186;9.778;2023-07-02T06:06:03;20.00;99.90
19552;DHT22;9921;47.186;9.778;2023-07-02T06:08:30;20.00;99.90
19552;DHT22;9921;47.186;9.778;2023-07-02T06:10:58;19.90;99.90
19552;DHT22;9921;47.186;9.778;2023-07-02T06:13:27;19.80;99.90
19552;DHT22;9921;47.186;9.778;2023-07-02T06:15:53;19.80;99.90
19552;DHT22;9921;47.186;9.778;2023-07-02T06:18:20;20.00;99.90
19552;DHT22;9921;47.186;9.778;2023-07-02T06:20:47;20.00;99.90
19552;DHT22;9921;47.186;9.778;2023-07-02T06:23:14;20.00;99.90
19552;DHT22;9921;47.186;9.778;2023-07-02T06:25:41;20.00;99.90
19552;DHT22;9921;47.186;9.778;2023-07-02T06:28:09;20.00;99.90
19552;DHT22;9921;47.186;9.778;2023-07-02T06:30:37;19.90;99.90
19552;DHT22;9921;47.186;9.778;2023-07-02T06:33:04;20.00;99.90
19552;DHT22;9921;47.186;9.778;2023-07-02T06:35:31;20.00;99.90
19552;DHT22;9921;47.186;9.778;2023-07-02T06:37:58;19.90;99.90
19552;DHT22;9921;47.186;9.778;2023-07-02T06:40:24;19.90;99.90
19552;DHT22;9921;47.186;9.778;2023-07-02T06:42:51;19.80;99.90
19552;DHT22;9921;47.186;9.778;2023-07-02T06:45:18;19.80;99.90
19552;DHT22;9921;47.186;9.778;2023-07-02T06:47:46;19.90;99.90
19552;DHT22;9921;47.186;9.778;2023-07-02T06:50:13;20.00;99.90
19552;DHT22;9921;47.186;9.778;2023-07-02T06:52:40;20.00;99.90
19552;DHT22;9921;47.186;9.778;2023-07-02T06:55:08;20.10;99.90
19552;DHT22;9921;47.186;9.778;2023-07-02T06:57:35;20.10;99.90
19552;DHT22;9921;47.186;9.778;2023-07-02T07:00:01;20.10;99.90
19552;DHT22;9921;47.186;9.778;2023-07-02T07:02:29;20.10;99.90
19552;DHT22;9921;47.186;9.778;2023-07-02T07:04:58;20.10;99.90
19552;DHT22;9921;47.186;9.778;2023-07-02T07:07:24;20.20;99.90
19552;DHT22;9921;47.186;9.778;2023-07-02T07:09:51;20.20;99.90
19552;DHT22;9921;47.186;9.778;2023-07-02T07:12:18;20.30;99.90
19552;DHT22;9921;47.186;9.778;2023-07-02T07:14:45;20.30;99.90
19552;DHT22;9921;47.186;9.778;2023-07-02T07:17:12;20.20;99.90
19552;DHT22;9921;47.186;9.778;2023-07-02T07:19:39;20.40;99.90
19552;DHT22;9921;47.186;9.778;2023-07-02T07:22:07;20.40;99.90
19552;DHT22;9921;47.186;9.778;2023-07-02T07:24:34;20.40;99.90
19552;DHT22;9921;47.186;9.778;2023-07-02T07:27:01;20.40;99.90
19552;DHT22;9921;47.186;9.778;2023-07-02T07:29:28;20.40;99.90
19552;DHT22;9921;47.186;9.778;2023-07-02T07:31:55;20.50;99.90
19552;DHT22;9921;47.186;9.778;2023-07-02T07:34:22;20.50;99.90
19552;DHT22;9921;47.186;9.778;2023-07-02T07:36:49;20.40;99.90
19552;DHT22;9921;47.186;9.778;2023-07-02T07:39:17;20.40;99.90
19552;DHT22;9921;47.186;9.778;2023-07-02T07:41:46;20.30;99.90
19552;DHT22;9921;47.186;9.778;2023-07-02T07:44:14;20.20;99.90
19552;DHT22;9921;47.186;9.778;2023-07-02T07:46:41;20.10;99.90
19552;DHT22;9921;47.186;9.778;2023-07-02T07:49:08;20.10;99.90
19552;DHT22;9921;47.186;9.778;2023-07-02T07:51:35;20.00;99.90
19552;DHT22;9921;47.186;9.778;2023-07-02T07:54:02;20.00;99.90
19552;DHT22;9921;47.186;9.778;2023-07-02T07:56:30;19.90;99.90
19552;DHT22;9921;47.186;9.778;2023-07-02T07:58:57;19.90;99.90
19552;DHT22;9921;47.186;9.778;2023-07-02T08:01:26;19.90;99.90
19552;DHT22;9921;47.186;9.778;2023-07-02T08:03:53;19.90;99.90
19552;DHT22;9921;47.186;9.778;2023-07-02T08:06:20;19.90;99.90
19552;DHT22;9921;47.186;9.778;2023-07-02T08:08:47;19.90;99.90
19552;DHT22;9921;47.186;9.778;2023-07-02T08:11:14;19.90;99.90
19552;DHT22;9921;47.186;9.778;2023-07-02T08:13:42;19.90;99.90
19552;DHT22;9921;47.186;9.778;2023-07-02T08:16:09;19.90;99.90
19552;DHT22;9921;47.186;9.778;2023-07-02T08:18:36;19.90;99.90
19552;DHT22;9921;47.186;9.778;2023-07-02T08:21:03;19.90;99.90
19552;DHT22;9921;47.186;9.778;2023-07-02T08:23:31;19.90;99.90
19552;DHT22;9921;47.186;9.778;2023-07-02T08:25:58;19.90;99.90
19552;DHT22;9921;47.186;9.778;2023-07-02T08:28:25;19.90;99.90
19552;DHT22;9921;47.186;9.778;2023-07-02T08:30:53;19.90;99.90
19552;DHT22;9921;47.186;9.778;2023-07-02T08:33:20;19.90;99.90
19552;DHT22;9921;47.186;9.778;2023-07-02T08:35:47;19.90;99.90
19552;DHT22;9921;47.186;9.778;2023-07-02T08:38:14;20.00;99.90
19552;DHT22;9921;47.186;9.778;2023-07-02T08:40:41;20.00;99.90
19552;DHT22;9921;47.186;9.778;2023-07-02T08:43:08;20.00;99.90
19552;DHT22;9921;47.186;9.778;2023-07-02T08:45:35;20.00;99.90
19552;DHT22;9921;47.186;9.778;2023-07-02T08:48:04;20.00;99.90
19552;DHT22;9921;47.186;9.778;2023-07-02T08:50:32;20.00;99.90
19552;DHT22;9921;47.186;9.778;2023-07-02T08:52:59;20.00;99.90
19552;DHT22;9921;47.186;9.778;2023-07-02T08:55:26;20.00;99.90
19552;DHT22;9921;47.186;9.778;2023-07-02T08:57:56;20.10;99.90
19552;DHT22;9921;47.186;9.778;2023-07-02T09:00:25;20.10;99.90
19552;DHT22;9921;47.186;9.778;2023-07-02T09:02:52;20.20;99.90
19552;DHT22;9921;47.186;9.778;2023-07-02T09:05:21;20.30;99.90
19552;DHT22;9921;47.186;9.778;2023-07-02T09:07:49;20.30;99.90
19552;DHT22;9921;47.186;9.778;2023-07-02T09:10:29;20.30;99.90
19552;DHT22;9921;47.186;9.778;2023-07-02T09:13:03;20.40;99.90
19552;DHT22;9921;47.186;9.778;2023-07-02T09:15:35;20.50;99.90
19552;DHT22;9921;47.186;9.778;2023-07-02T09:18:13;20.70;99.90
19552;DHT22;9921;47.186;9.778;2023-07-02T09:20:41;20.70;99.90
19552;DHT22;9921;47.186;9.778;2023-07-02T09:23:08;20.70;99.90
19552;DHT22;9921;47.186;9.778;2023-07-02T09:25:37;20.80;99.90
19552;DHT22;9921;47.186;9.778;2023-07-02T09:28:14;20.90;99.90
19552;DHT22;9921;47.186;9.778;2023-07-02T09:30:49;20.90;99.90
19552;DHT22;9921;47.186;9.778;2023-07-02T09:33:16;20.80;99.90
19552;DHT22;9921;47.186;9.778;2023-07-02T09:35:45;20.70;99.90
19552;DHT22;9921;47.186;9.778;2023-07-02T09:38:12;20.70;99.90
19552;DHT22;9921;47.186;9.778;2023-07-02T09:40:45;20.70;99.90
19552;DHT22;9921;47.186;9.778;2023-07-02T09:43:13;20.70;99.90
19552;DHT22;9921;47.186;9.778;2023-07-02T09:45:42;20.70;99.90
19552;DHT22;9921;47.186;9.778;2023-07-02T09:48:12;20.80;99.90
19552;DHT22;9921;47.186;9.778;2023-07-02T09:50:40;20.80;99.90
19552;DHT22;9921;47.186;9.778;2023-07-02T09:53:09;20.90;99.90
19552;DHT22;9921;47.186;9.778;2023-07-02T09:55:36;21.00;99.90
19552;DHT22;9921;47.186;9.778;2023-07-02T09:58:04;21.00;99.90
19552;DHT22;9921;47.186;9.778;2023-07-02T10:00:31;21.20;99.90
19552;DHT22;9921;47.186;9.778;2023-07-02T10:02:58;21.20;99.90
19552;DHT22;9921;47.186;9.778;2023-07-02T10:05:26;21.30;99.90
19552;DHT22;9921;47.186;9.778;2023-07-02T10:07:54;21.30;99.90
19552;DHT22;9921;47.186;9.778;2023-07-02T10:10:29;21.30;99.90
19552;DHT22;9921;47.186;9.778;2023-07-02T10:12:57;21.30;99.90
19552;DHT22;9921;47.186;9.778;2023-07-02T10:15:25;21.30;99.90
19552;DHT22;9921;47.186;9.778;2023-07-02T10:17:56;21.40;99.90
19552;DHT22;9921;47.186;9.778;2023-07-02T10:20:31;21.40;99.90
19552;DHT22;9921;47.186;9.778;2023-07-02T10:22:59;21.50;99.90
19552;DHT22;9921;47.186;9.778;2023-07-02T10:25:29;21.70;99.90
19552;DHT22;9921;47.186;9.778;2023-07-02T10:27:57;21.70;99.90
19552;DHT22;9921;47.186;9.778;2023-07-02T10:30:37;21.70;99.90
19552;DHT22;9921;47.186;9.778;2023-07-02T10:33:08;21.70;99.90
19552;DHT22;9921;47.186;9.778;2023-07-02T10:35:35;21.60;99.90
19552;DHT22;9921;47.186;9.778;2023-07-02T10:38:02;21.60;99.90
19552;DHT22;9921;47.186;9.778;2023-07-02T10:40:30;21.60;99.90
19552;DHT22;9921;47.186;9.778;2023-07-02T10:42:59;21.60;99.90
19552;DHT22;9921;47.186;9.778;2023-07-02T10:45:32;21.60;99.90
19552;DHT22;9921;47.186;9.778;2023-07-02T10:48:01;21.60;99.90
19552;DHT22;9921;47.186;9.778;2023-07-02T10:50:28;21.70;99.90
19552;DHT22;9921;47.186;9.778;2023-07-02T10:52:55;21.60;99.90
19552;DHT22;9921;47.186;9.778;2023-07-02T10:55:23;21.70;99.90
19552;DHT22;9921;47.186;9.778;2023-07-02T10:58:03;21.70;99.90
19552;DHT22;9921;47.186;9.778;2023-07-02T11:00:30;21.70;99.90
19552;DHT22;9921;47.186;9.778;2023-07-02T11:02:57;21.70;99.90
19552;DHT22;9921;47.186;9.778;2023-07-02T11:05:24;21.70;99.90
19552;DHT22;9921;47.186;9.778;2023-07-02T11:07:50;21.80;99.90
19552;DHT22;9921;47.186;9.778;2023-07-02T11:10:23;21.90;99.90
19552;DHT22;9921;47.186;9.778;2023-07-02T11:12:52;22.00;99.90
19552;DHT22;9921;47.186;9.778;2023-07-02T11:15:19;22.00;99.90
19552;DHT22;9921;47.186;9.778;2023-07-02T11:17:46;22.00;99.90
19552;DHT22;9921;47.186;9.778;2023-07-02T11:20:14;22.10;99.90
19552;DHT22;9921;47.186;9.778;2023-07-02T11:22:41;22.00;99.90
19552;DHT22;9921;47.186;9.778;2023-07-02T11:25:09;22.10;99.90
19552;DHT22;9921;47.186;9.778;2023-07-02T11:27:36;22.20;99.90
19552;DHT22;9921;47.186;9.778;2023-07-02T11:30:06;22.20;99.90
19552;DHT22;9921;47.186;9.778;2023-07-02T11:32:46;22.20;99.90
19552;DHT22;9921;47.186;9.778;2023-07-02T11:35:14;22.40;99.90
19552;DHT22;9921;47.186;9.778;2023-07-02T11:37:41;22.40;99.90
19552;DHT22;9921;47.186;9.778;2023-07-02T11:40:09;22.40;99.90
19552;DHT22;9921;47.186;9.778;2023-07-02T11:42:36;22.40;99.90
19552;DHT22;9921;47.186;9.778;2023-07-02T11:45:05;22.50;99.90
19552;DHT22;9921;47.186;9.778;2023-07-02T11:47:32;22.50;99.90
19552;DHT22;9921;47.186;9.778;2023-07-02T11:49:59;22.70;99.90
19552;DHT22;9921;47.186;9.778;2023-07-02T11:52:26;22.80;99.90
19552;DHT22;9921;47.186;9.778;2023-07-02T11:54:53;22.90;99.90
19552;DHT22;9921;47.186;9.778;2023-07-02T11:57:20;22.90;99.90
19552;DHT22;9921;47.186;9.778;2023-07-02T11:59:48;23.00;99.90
19552;DHT22;9921;47.186;9.778;2023-07-02T12:02:17;23.10;99.90
19552;DHT22;9921;47.186;9.778;2023-07-02T12:04:44;23.20;99.90
19552;DHT22;9921;47.186;9.778;2023-07-02T12:07:10;23.30;99.90
19552;DHT22;9921;47.186;9.778;2023-07-02T12:09:39;23.40;99.90
19552;DHT22;9921;47.186;9.778;2023-07-02T12:12:07;23.30;99.90
19552;DHT22;9921;47.186;9.778;2023-07-02T12:14:34;23.50;99.90
19552;DHT22;9921;47.186;9.778;2023-07-02T12:17:01;23.50;99.90
19552;DHT22;9921;47.186;9.778;2023-07-02T12:19:29;23.50;99.90
19552;DHT22;9921;47.186;9.778;2023-07-02T12:21:56;23.50;99.90
19552;DHT22;9921;47.186;9.778;2023-07-02T12:24:22;23.50;99.90
19552;DHT22;9921;47.186;9.778;2023-07-02T12:26:49;23.40;99.90
19552;DHT22;9921;47.186;9.778;2023-07-02T12:29:16;23.40;99.90
19552;DHT22;9921;47.186;9.778;2023-07-02T12:31:43;23.40;99.90
19552;DHT22;9921;47.186;9.778;2023-07-02T12:34:10;23.40;99.90
19552;DHT22;9921;47.186;9.778;2023-07-02T12:36:38;23.40;99.90
19552;DHT22;9921;47.186;9.778;2023-07-02T12:39:05;23.40;99.90
19552;DHT22;9921;47.186;9.778;2023-07-02T12:41:32;23.50;99.90
19552;DHT22;9921;47.186;9.778;2023-07-02T12:43:59;23.50;99.90
19552;DHT22;9921;47.186;9.778;2023-07-02T12:46:26;23.60;99.90
19552;DHT22;9921;47.186;9.778;2023-07-02T12:48:53;23.60;99.90
19552;DHT22;9921;47.186;9.778;2023-07-02T12:51:20;23.60;99.90
19552;DHT22;9921;47.186;9.778;2023-07-02T12:53:48;23.60;99.90
19552;DHT22;9921;47.186;9.778;2023-07-02T12:56:15;23.60;99.90
19552;DHT22;9921;47.186;9.778;2023-07-02T12:58:42;23.50;99.90
19552;DHT22;9921;47.186;9.778;2023-07-02T13:01:09;23.50;99.90
19552;DHT22;9921;47.186;9.778;2023-07-02T13:03:36;23.40;99.90
19552;DHT22;9921;47.186;9.778;2023-07-02T13:06:03;23.50;99.90
19552;DHT22;9921;47.186;9.778;2023-07-02T13:08:30;23.50;99.90
19552;DHT22;9921;47.186;9.778;2023-07-02T13:10:58;23.50;99.90
19552;DHT22;9921;47.186;9.778;2023-07-02T13:13:25;23.50;99.90
19552;DHT22;9921;47.186;9.778;2023-07-02T13:15:52;23.50;99.90
19552;DHT22;9921;47.186;9.778;2023-07-02T13:18:18;23.50;99.90
19552;DHT22;9921;47.186;9.778;2023-07-02T13:20:45;23.50;99.90
19552;DHT22;9921;47.186;9.778;2023-07-02T13:23:12;23.50;99.90
19552;DHT22;9921;47.186;9.778;2023-07-02T13:25:39;23.40;99.90
19552;DHT22;9921;47.186;9.778;2023-07-02T13:28:07;23.40;99.90
19552;DHT22;9921;47.186;9.778;2023-07-02T13:30:34;23.50;99.90
19552;DHT22;9921;47.186;9.778;2023-07-02T13:33:01;23.50;99.90
19552;DHT22;9921;47.186;9.778;2023-07-02T13:35:28;23.50;99.90
19552;DHT22;9921;47.186;9.778;2023-07-02T13:37:55;23.50;99.90
19552;DHT22;9921;47.186;9.778;2023-07-02T13:40:22;23.50;99.90
19552;DHT22;9921;47.186;9.778;2023-07-02T13:42:49;23.50;99.90
19552;DHT22;9921;47.186;9.778;2023-07-02T13:45:17;23.50;99.90
19552;DHT22;9921;47.186;9.778;2023-07-02T13:47:44;23.50;99.90
19552;DHT22;9921;47.186;9.778;2023-07-02T13:50:11;23.50;99.90
19552;DHT22;9921;47.186;9.778;2023-07-02T13:52:38;23.50;99.90
19552;DHT22;9921;47.186;9.778;2023-07-02T13:55:06;23.50;99.90
19552;DHT22;9921;47.186;9.778;2023-07-02T13:57:33;23.50;99.90
19552;DHT22;9921;47.186;9.778;2023-07-02T14:00:01;23.50;99.90
19552;DHT22;9921;47.186;9.778;2023-07-02T14:02:28;23.50;99.90
19552;DHT22;9921;47.186;9.778;2023-07-02T14:04:57;23.60;99.90
19552;DHT22;9921;47.186;9.778;2023-07-02T14:07:24;23.60;99.90
19552;DHT22;9921;47.186;9.778;2023-07-02T14:09:51;23.60;99.90
19552;DHT22;9921;47.186;9.778;2023-07-02T14:12:18;23.60;99.90
19552;DHT22;9921;47.186;9.778;2023-07-02T14:14:45;23.70;99.90
19552;DHT22;9921;47.186;9.778;2023-07-02T14:17:13;23.70;99.90
19552;DHT22;9921;47.186;9.778;2023-07-02T14:19:40;23.80;99.90
19552;DHT22;9921;47.186;9.778;2023-07-02T14:22:07;23.80;99.90
19552;DHT22;9921;47.186;9.778;2023-07-02T14:24:34;23.90;99.90
19552;DHT22;9921;47.186;9.778;2023-07-02T14:27:01;24.00;99.90
19552;DHT22;9921;47.186;9.778;2023-07-02T14:29:27;24.10;99.90
19552;DHT22;9921;47.186;9.778;2023-07-02T14:31:54;24.10;99.90
19552;DHT22;9921;47.186;9.778;2023-07-02T14:34:23;24.10;99.90
19552;DHT22;9921;47.186;9.778;2023-07-02T14:36:50;24.10;99.90
19552;DHT22;9921;47.186;9.778;2023-07-02T14:39:16;24.10;99.90
19552;DHT22;9921;47.186;9.778;2023-07-02T14:41:43;24.20;99.90
19552;DHT22;9921;47.186;9.778;2023-07-02T14:44:10;24.20;99.90
19552;DHT22;9921;47.186;9.778;2023-07-02T14:46:37;24.20;99.90
19552;DHT22;9921;47.186;9.778;2023-07-02T14:49:04;24.10;99.90
19552;DHT22;9921;47.186;9.778;2023-07-02T14:51:32;24.00;99.90
19552;DHT22;9921;47.186;9.778;2023-07-02T14:53:59;24.10;99.90
19552;DHT22;9921;47.186;9.778;2023-07-02T14:56:27;24.10;99.90
19552;DHT22;9921;47.186;9.778;2023-07-02T14:58:53;24.00;99.90
19552;DHT22;9921;47.186;9.778;2023-07-02T15:01:20;24.00;99.90
19552;DHT22;9921;47.186;9.778;2023-07-02T15:03:47;24.00;99.90
19552;DHT22;9921;47.186;9.778;2023-07-02T15:06:16;24.00;99.90
19552;DHT22;9921;47.186;9.778;2023-07-02T15:08:44;24.00;99.90
19552;DHT22;9921;47.186;9.778;2023-07-02T15:11:13;24.00;99.90
19552;DHT22;9921;47.186;9.778;2023-07-02T15:13:40;24.00;99.90
19552;DHT22;9921;47.186;9.778;2023-07-02T15:16:08;24.00;99.90
19552;DHT22;9921;47.186;9.778;2023-07-02T15:18:35;24.00;99.90
19552;DHT22;9921;47.186;9.778;2023-07-02T15:21:02;24.00;99.90
19552;DHT22;9921;47.186;9.778;2023-07-02T15:23:30;23.90;99.90
19552;DHT22;9921;47.186;9.778;2023-07-02T15:26:01;23.80;99.90
19552;DHT22;9921;47.186;9.778;2023-07-02T15:28:28;23.80;99.90
19552;DHT22;9921;47.186;9.778;2023-07-02T15:30:58;23.80;99.90
19552;DHT22;9921;47.186;9.778;2023-07-02T15:33:25;23.90;99.90
19552;DHT22;9921;47.186;9.778;2023-07-02T15:35:52;24.00;99.90
19552;DHT22;9921;47.186;9.778;2023-07-02T15:38:19;24.00;99.90
19552;DHT22;9921;47.186;9.778;2023-07-02T15:40:48;24.00;99.90
19552;DHT22;9921;47.186;9.778;2023-07-02T15:43:16;24.00;99.90
19552;DHT22;9921;47.186;9.778;2023-07-02T15:45:43;24.00;99.90
19552;DHT22;9921;47.186;9.778;2023-07-02T15:48:10;23.90;99.90